Fykan — LLDJ — position and weather

sailwx.info

Track history (hours):
 
Tides and Currents Weather Stations Pressure Air Temp Water Temp Dewpoint Dewpoint Depression Visibility Wind Speed Wind Dir Waves Ship Positions

Fykan

Last reported at 2016-Jun-29 20:32 UTC. Time now 2016-Jun-30 03:15 UTC.
Position N 66°36' E 012°51'.

Length 52 m; draft 3.3 m.

Type: Ship. MMSI: 259681000.

Date/timePositionNaut miles runAvg speedWind from/ knotsBaromVisibWave heightAir tempDewpointWater temp
2016-Jun-29 20:32N 66°36' E 012°51'3 0.5
2016-Jun-29 14:21N 66°36' E 012°59'5 6.1
2016-Jun-29 13:32N 66°34' E 012°47'5 0.7
2016-Jun-29 06:21N 66°36' E 012°59'5 5.4
2016-Jun-29 05:29N 66°34' E 012°49'1 0.1
2016-Jun-28 16:17N 66°34' E 012°50'0 0.0
2016-Jun-28 10:27N 66°34' E 012°50'0 0.0
2016-Jun-28 04:31N 66°34' E 012°50'2 0.2
2016-Jun-27 18:26N 66°34' E 012°47'5 5.6
2016-Jun-27 17:32N 66°35' E 012°59'0 0.1
2016-Jun-27 14:24N 66°36' E 012°59'5 5.9
2016-Jun-27 13:33N 66°34' E 012°47'5 1.4
2016-Jun-27 10:09N 66°35' E 012°59'1 0.3
2016-Jun-27 06:20N 66°36' E 012°59'5 5.6
2016-Jun-27 05:30N 66°34' E 012°49'1 0.1
2016-Jun-26 21:18N 66°34' E 012°50'8 2.9
2016-Jun-26 18:33N 66°34' E 013°11'5 1.4
2016-Jun-26 15:14N 66°35' E 012°59'4 5.7
2016-Jun-26 14:32N 66°34' E 012°50'0 0.0
2016-Jun-25 10:12N 66°34' E 012°50'4 5.5
2016-Jun-25 09:28N 66°36' E 012°59'0 0.0
2016-Jun-25 06:20N 66°36' E 012°59'5 5.6
2016-Jun-25 05:28N 66°34' E 012°48'5 0.6
2016-Jun-24 21:21N 66°36' E 012°58'2 0.4
2016-Jun-24 17:18N 66°37' E 012°59'5 5.1
2016-Jun-24 16:17N 66°34' E 012°50'0 0.0
2016-Jun-24 10:34N 66°34' E 012°50'0 0.1
2016-Jun-24 04:26N 66°34' E 012°49'5 0.5
2016-Jun-23 18:05N 66°37' E 012°59'1 0.3
2016-Jun-23 14:27N 66°36' E 012°59'5 5.6
2016-Jun-23 13:33N 66°34' E 012°47'6 1.4
2016-Jun-23 09:22N 66°37' E 012°59'6 1.5
2016-Jun-23 05:28N 66°34' E 012°48'3 0.4
2016-Jun-22 20:32N 66°34' E 012°56'3 0.4
2016-Jun-22 14:27N 66°36' E 012°59'5 5.6
2016-Jun-22 13:33N 66°34' E 012°47'1 0.3
2016-Jun-22 10:33N 66°34' E 012°49'5 1.1
2016-Jun-22 06:21N 66°36' E 012°59'5 5.5
2016-Jun-22 05:29N 66°34' E 012°49'6 0.5
2016-Jun-21 17:15N 66°38' E 012°60'4 6.2
2016-Jun-21 16:32N 66°34' E 012°54'1 0.2
2016-Jun-21 10:30N 66°34' E 012°50'1 0.1
2016-Jun-21 04:27N 66°34' E 012°49'1 0.1
2016-Jun-20 18:27N 66°34' E 012°46'5 1.3
2016-Jun-20 14:23N 66°36' E 012°59'5 6.1
2016-Jun-20 13:33N 66°34' E 012°47'3 1.3
2016-Jun-20 11:33N 66°36' E 012°41'7 1.3
2016-Jun-20 06:22N 66°36' E 012°59'5 5.6
2016-Jun-20 05:31N 66°34' E 012°48'  
Track history (hours):
 
Tides and Currents Weather Stations Pressure Air Temp Water Temp Dewpoint Dewpoint Depression Visibility Wind Speed Wind Dir Waves Ship Positions

Fykan

Last reported at 2016-Jun-29 20:32 UTC. Time now 2016-Jun-30 03:15 UTC.
Position N 66°36' E 012°51'.

Length 52 m; draft 3.3 m.

Type: Ship. MMSI: 259681000.

Date/timePositionNaut miles runAvg speedWind from/ knotsBaromVisibWave heightAir tempDewpointWater temp
2016-Jun-29 20:32N 66°36' E 012°51'3 0.5
2016-Jun-29 14:21N 66°36' E 012°59'5 6.1
2016-Jun-29 13:32N 66°34' E 012°47'5 0.7
2016-Jun-29 06:21N 66°36' E 012°59'5 5.4
2016-Jun-29 05:29N 66°34' E 012°49'1 0.1
2016-Jun-28 16:17N 66°34' E 012°50'0 0.0
2016-Jun-28 10:27N 66°34' E 012°50'0 0.0
2016-Jun-28 04:31N 66°34' E 012°50'2 0.2
2016-Jun-27 18:26N 66°34' E 012°47'5 5.6
2016-Jun-27 17:32N 66°35' E 012°59'0 0.1
2016-Jun-27 14:24N 66°36' E 012°59'5 5.9
2016-Jun-27 13:33N 66°34' E 012°47'5 1.4
2016-Jun-27 10:09N 66°35' E 012°59'1 0.3
2016-Jun-27 06:20N 66°36' E 012°59'5 5.6
2016-Jun-27 05:30N 66°34' E 012°49'1 0.1
2016-Jun-26 21:18N 66°34' E 012°50'8 2.9
2016-Jun-26 18:33N 66°34' E 013°11'5 1.4
2016-Jun-26 15:14N 66°35' E 012°59'4 5.7
2016-Jun-26 14:32N 66°34' E 012°50'0 0.0
2016-Jun-25 10:12N 66°34' E 012°50'4 5.5
2016-Jun-25 09:28N 66°36' E 012°59'0 0.0
2016-Jun-25 06:20N 66°36' E 012°59'5 5.6
2016-Jun-25 05:28N 66°34' E 012°48'5 0.6
2016-Jun-24 21:21N 66°36' E 012°58'2 0.4
2016-Jun-24 17:18N 66°37' E 012°59'5 5.1
2016-Jun-24 16:17N 66°34' E 012°50'0 0.0
2016-Jun-24 10:34N 66°34' E 012°50'0 0.1
2016-Jun-24 04:26N 66°34' E 012°49'5 0.5
2016-Jun-23 18:05N 66°37' E 012°59'1 0.3
2016-Jun-23 14:27N 66°36' E 012°59'5 5.6
2016-Jun-23 13:33N 66°34' E 012°47'6 1.4
2016-Jun-23 09:22N 66°37' E 012°59'6 1.5
2016-Jun-23 05:28N 66°34' E 012°48'3 0.4
2016-Jun-22 20:32N 66°34' E 012°56'3 0.4
2016-Jun-22 14:27N 66°36' E 012°59'5 5.6
2016-Jun-22 13:33N 66°34' E 012°47'1 0.3
2016-Jun-22 10:33N 66°34' E 012°49'5 1.1
2016-Jun-22 06:21N 66°36' E 012°59'5 5.5
2016-Jun-22 05:29N 66°34' E 012°49'6 0.5
2016-Jun-21 17:15N 66°38' E 012°60'4 6.2
2016-Jun-21 16:32N 66°34' E 012°54'1 0.2
2016-Jun-21 10:30N 66°34' E 012°50'1 0.1
2016-Jun-21 04:27N 66°34' E 012°49'1 0.1
2016-Jun-20 18:27N 66°34' E 012°46'5 1.3
2016-Jun-20 14:23N 66°36' E 012°59'5 6.1
2016-Jun-20 13:33N 66°34' E 012°47'3 1.3
2016-Jun-20 11:33N 66°36' E 012°41'7 1.3
2016-Jun-20 06:22N 66°36' E 012°59'5 5.6
2016-Jun-20 05:31N 66°34' E 012°48'  

Dump ship's entire track history